Station: Smithton  

  Atmospheric Gas Attenuation - ITU Rec 676-11   ----------------- dB/100km -----------------
Date Time Temp RH % AH g/m3 Dew Point Wind Direction Speed kph Gust kph Barometer mB Rainfall Since 9am 24GHz 47GHz 76GHz 122GHz 134GHz 241GHz
06/05 20:40 6.5 88 6.6 4.7 20 24 1011.5 6 15.6 24.6 35.1 91.7 80.0 273.0
06/05 20:30 6.9 88 6.78 5.1 30 44 1011.2 6 16.0 24.8 35.6 93.2 82.0 280.0
06/05 20:20 7.2 87 6.83 5.2 37 44 1011.6 6 16.1 24.8 35.7 93.4 82.3 281.4
06/05 20:10 7.6 88 7.09 5.7 19 20 1011 5.8 16.6 25.1 36.5 95.7 85.4 292.1
06/05 20:00 7.6 88 7.09 5.7 19 24 1010.9 5.8 16.6 25.1 36.5 95.7 85.4 292.1
06/05 19:50 8.1 88 7.33 6.2 22 26 1010.8 5.8 17.1 25.4 37.3 97.7 88.1 301.6
06/05 19:40 8.1 87 7.24 6.1 24 26 1010.7 5.8 16.9 25.2 36.9 96.7 86.8 297.3
06/05 19:30 8.3 87 7.34 6.3 20 30 1010.7 5.8 17.1 25.3 37.2 97.6 88.0 301.2
06/05 19:20 8.2 87 7.29 6.2 19 20 1010.5 5.8 17.0 25.3 37.1 97.1 87.4 299.2
06/05 19:10 8.2 86 7.21 6 22 26 1010.5 5.8 16.9 25.1 36.7 96.3 86.3 295.4
06/05 19:00 8.5 87 7.43 6.5 26 37 1010.5 5.8 17.3 25.4 37.5 98.3 88.9 304.7
06/05 18:50 8.9 89 7.8 7.2 28 35 1011.1 5.8 18.1 25.9 38.9 102.0 93.6 320.9
06/05 18:40 9.1 91 8.08 7.7 20 24 1010.9 5.8 18.7 26.3 39.9 104.8 97.1 333.5
06/05 18:30 9.3 92 8.27 8.1 20 30 1010.7 5.8 19.1 26.6 40.6 106.6 99.5 341.8
06/05 18:20 9.3 92 8.27 8.1 20 22 1010.3 5.8 19.1 26.6 40.6 106.6 99.5 341.6
06/05 18:10 9.3 92 8.27 8.1 20 22 1010.4 5.8 19.1 26.6 40.6 106.6 99.5 341.7
06/05 18:00 9.4 92 8.32 8.2 22 35 1010.3 5.6 19.2 26.6 40.8 107.0 100.0 343.6
06/05 17:50 9.6 92 8.43 8.4 20 28 1010.2 5.4 19.4 26.7 41.1 108.0 101.3 348.1
06/05 17:40 9.7 92 8.48 8.5 26 30 1010.1 5.2 19.5 26.8 41.3 108.4 101.8 350.0
06/05 17:30 9.8 92 8.54 8.6 28 43 1010.2 4.8 19.7 26.9 41.5 108.9 102.5 352.5
06/05 17:20 9.8 92 8.54 8.6 30 32 1010.1 4.8 19.7 26.9 41.5 108.9 102.5 352.5
06/05 17:10 9.8 91 8.45 8.4 24 30 1009.8 4.8 19.5 26.7 41.1 107.9 101.3 348.0
06/05 17:00 9.9 91 8.5 8.5 26 35 1010.1 4.2 19.6 26.8 41.2 108.3 101.8 350.1
06/05 16:50 10.1 91 8.61 8.7 30 35 1009.9 3.4 19.8 26.9 41.6 109.3 103.1 354.4
06/05 16:40 10.5 89 8.63 8.8 32 37 1009.9 2.6 19.8 26.8 41.5 108.9 102.8 353.6
06/05 16:30 10.8 90 8.9 9.2 28 41 1009.7 2 20.4 27.2 42.4 111.5 106.1 365.2
06/05 16:20 11.1 91 9.17 9.7 28 32 1009.6 1.6 21.0 27.5 43.4 114.1 109.5 376.9
06/05 16:10 11.2 92 9.33 9.9 26 30 1009.7 1.6 21.3 27.8 44.0 115.8 111.6 384.3
06/05 16:00 11 92 9.21 9.8 22 28 1009.8 1.6 21.0 27.6 43.6 114.7 110.2 379.4
06/05 15:50 11 92 9.21 9.8 22 28 1009.8 1.6 21.0 27.6 43.6 114.7 110.2 379.4
06/05 15:40 11.1 91 9.17 9.7 30 33 1009.9 1.4 21.0 27.5 43.4 114.1 109.5 377.0
06/05 15:30 11.5 91 9.4 10.1 33 50 1009.8 1.2 21.4 27.8 44.2 116.2 112.1 386.2
06/05 15:20 12.2 89 9.61 10.4 37 43 1009.6 1.2 21.8 27.9 44.7 117.5 114.0 392.9
06/05 15:10 12.6 88 9.74 10.7 37 43 1009.4 1.2 22.1 28.0 45.0 118.3 115.2 397.2
06/05 15:00 13.3 88 10.17 11.4 30 44 1009.4 1 23.0 28.5 46.4 122.1 120.2 414.5
06/05 14:50 13.6 88 10.36 11.7 22 28 1009.5 1 23.4 28.8 47.0 123.8 122.4 422.3
06/05 14:40 13.8 83 9.89 11 32 35 1009.6 1 22.4 27.9 44.9 118.2 115.5 398.4
06/05 14:30 15.3 74 9.66 10.7 33 43 1009.5 0.6 21.8 27.0 43.1 113.4 110.2 379.9
06/05 14:20 15.6 75 9.97 11.2 39 46 1009.6 0.6 22.4 27.5 44.2 116.4 113.9 393.0
06/05 14:10 15.5 73 9.65 10.7 37 43 1009.8 0.6 21.8 27.0 43.0 113.0 109.8 378.5
06/05 14:00 15.9 72 9.75 10.9 33 44 1010.1 0.6 21.9 27.0 43.2 113.6 110.6 381.4
06/05 13:50 15.6 73 9.71 10.8 33 39 1010.3 0.6 21.9 27.1 43.2 113.6 110.5 381.0
06/05 13:40 16.9 74 10.64 12.2 30 39 1010.5 0.6 23.8 28.2 46.3 121.9 121.1 418.2
06/05 13:30 16 71 9.67 10.7 33 44 1010.7 0.6 21.8 26.9 42.8 112.6 109.4 377.3
06/05 13:20 16.2 74 10.2 11.6 30 35 1010.9 0.6 22.9 27.7 44.9 118.1 116.2 401.2
06/05 13:10 15.2 76 9.86 11 28 33 1011.2 0.6 22.2 27.5 44.1 115.9 113.2 390.3
06/05 13:00 15.3 77 10.06 11.3 30 39 1011.4 0.6 22.6 27.8 44.9 118.0 115.7 399.4
06/05 12:50 15.7 73 9.77 10.9 35 43 1011.5 0.6 22.0 27.2 43.5 114.3 111.2 383.7
06/05 12:40 16.1 75 10.28 11.7 37 44 1011.7 0.6 23.1 27.9 45.3 119.3 117.5 405.8
06/05 12:30 15.9 80 10.83 12.5 30 39 1011.9 0.6 24.3 28.9 47.8 125.7 125.4 433.3
06/05 12:20 15.3 81 10.58 12.1 39 44 1012.1 0.6 23.8 28.7 47.1 123.9 123.0 424.6
06/05 12:10 16.1 78 10.69 12.3 33 39 1012.2 0.6 23.9 28.6 47.1 123.9 123.2 425.5
06/05 12:00 15.9 79 10.7 12.3 32 44 1012.5 0.6 24.0 28.7 47.2 124.3 123.7 427.2
06/05 11:50 14.9 83 10.58 12 32 35 1012.7 0.6 23.8 28.8 47.3 124.6 123.7 427.0
06/05 11:40 15.1 87 11.22 13 26 30 1012.9 0.6 25.1 29.9 50.0 131.6 132.4 457.4
06/05 11:30 14.8 88 11.15 12.8 22 30 1013 0.6 25.0 29.9 49.9 131.3 131.9 455.7
06/05 11:20 14.4 89 11 12.6 22 26 1013.2 0.4 24.7 29.7 49.5 130.3 130.5 450.7
06/05 09:40 14.6 91 11.39 13.1 24 28 1014.4 0 25.5 30.4 51.1 134.6 135.8 469.4
06/05 09:30 14.6 92 11.51 13.3 24 32 1014.5 0 25.8 30.6 51.7 136.1 137.6 475.5
06/05 09:20 13.9 91 10.91 12.5 26 32 1014.6 0 24.5 29.8 49.5 130.3 130.2 449.6
06/05 09:10 13.8 92 10.96 12.5 20 22 1014.8 0 24.7 29.9 49.8 131.0 131.1 452.7
06/05 09:00 13.9 91 10.91 12.5 19 24 1014.9 0 24.5 29.8 49.5 130.3 130.2 449.7
06/05 08:50 13.5 91 10.64 12.1 17 19 1014.9 3.4 24.0 29.5 48.6 127.8 127.0 438.5
06/05 08:40 13.6 90 10.59 12 19 20 1014.9 3.2 23.9 29.4 48.3 127.1 126.1 435.5
06/05 08:30 13.5 91 10.64 12.1 17 24 1015 3.2 24.0 29.5 48.6 127.8 127.0 438.5
06/05 08:20 13.4 91 10.58 12 15 19 1015 3.2 23.9 29.4 48.4 127.3 126.3 436.1
06/05 08:10 13.4 91 10.58 12 20 24 1015.1 3.2 23.9 29.4 48.4 127.3 126.4 436.2
06/05 08:00 13.4 93 10.81 12.3 22 30 1015.2 3.2 24.4 29.8 49.4 130.0 129.7 447.7
06/05 07:50 13.1 93 10.61 12 24 28 1015.2 3.2 23.9 29.6 48.7 128.2 127.3 439.4
06/05 07:40 13 94 10.66 12.1 22 30 1015.2 3.2 24.1 29.7 49.0 128.9 128.2 442.5
06/05 07:30 12.6 94 10.4 11.7 13 17 1015.2 2.4 23.5 29.4 48.1 126.6 125.1 431.7
06/05 07:20 12.3 93 10.1 11.2 15 17 1015.1 2.2 22.9 29.0 47.0 123.6 121.3 418.3
06/05 07:10 11.9 93 9.85 10.8 13 17 1015.3 2.2 22.4 28.7 46.1 121.3 118.4 408.1
06/05 07:00 11.9 93 9.85 10.8 13 15 1015.4 2.2 22.4 28.7 46.1 121.3 118.4 408.2
06/05 06:50 12 93 9.91 10.9 11 11 1015.5 2.2 22.5 28.7 46.4 121.9 119.1 410.6
06/05 06:40 12.2 92 9.93 10.9 13 15 1015.6 2.2 22.5 28.7 46.3 121.8 119.1 410.6
06/05 06:30 12.5 92 10.12 11.2 15 20 1015.6 2.2 22.9 28.9 47.0 123.5 121.3 418.4
06/05 06:20 12.8 92 10.31 11.5 15 17 1015.7 2.2 23.3 29.2 47.6 125.3 123.5 426.3
06/05 06:10 12.8 92 10.31 11.5 20 22 1015.8 2.2 23.3 29.2 47.6 125.3 123.6 426.3
06/05 06:00 13.2 92 10.56 11.9 20 32 1015.9 2.2 23.8 29.5 48.5 127.5 126.5 436.6
06/05 05:50 13.4 91 10.58 12 17 24 1015.8 1.8 23.9 29.5 48.4 127.4 126.4 436.4
06/05 05:40 13.5 91 10.64 12.1 13 15 1015.8 1 24.0 29.5 48.6 127.9 127.1 438.8
06/05 05:30 13.4 90 10.46 11.8 20 26 1015.7 0.8 23.6 29.2 47.9 126.0 124.7 430.4
06/05 05:20 13.5 90 10.53 11.9 22 26 1015.7 0.8 23.7 29.3 48.1 126.7 125.5 433.3
06/05 05:10 13.5 90 10.53 11.9 17 22 1015.7 0.8 23.7 29.3 48.1 126.7 125.5 433.3
06/05 05:00 13.4 90 10.46 11.8 20 30 1015.8 0.8 23.6 29.2 47.9 126.0 124.7 430.4
06/05 04:50 13.3 90 10.4 11.7 20 24 1015.8 0.8 23.5 29.2 47.7 125.5 124.0 428.0
06/05 04:40 13.5 91 10.64 12.1 24 28 1015.9 0.8 24.0 29.5 48.6 128.0 127.1 438.9
06/05 04:30 13.6 91 10.71 12.2 24 35 1016 0.8 24.1 29.6 48.9 128.6 128.0 441.8
06/05 04:20 13.5 92 10.76 12.2 20 26 1016.1 0.8 24.2 29.7 49.2 129.4 128.9 444.9
06/05 04:10 13.3 93 10.75 12.2 17 20 1016.1 0.6 24.2 29.8 49.2 129.6 129.1 445.6
06/05 04:00 13 93 10.55 11.9 11 15 1016.1 0.6 23.8 29.5 48.6 127.8 126.7 437.3
06/05 03:50 12.9 93 10.48 11.8 13 15 1016.2 0.6 23.7 29.5 48.3 127.1 125.9 434.4
06/05 03:40 12.9 93 10.48 11.8 13 15 1016.3 0.6 23.7 29.5 48.3 127.1 125.9 434.4
06/05 03:30 13.1 93 10.61 12 17 20 1016.4 0.6 23.9 29.6 48.8 128.3 127.4 439.8
06/05 03:20 13.1 94 10.73 12.2 17 20 1016.5 0.6 24.2 29.8 49.3 129.7 129.1 445.9
06/05 03:10 13.1 94 10.73 12.2 15 17 1016.5 0.6 24.2 29.8 49.3 129.7 129.1 445.9
06/05 03:00 12.9 94 10.6 12 15 19 1016.7 0.6 23.9 29.7 48.9 128.6 127.6 440.6
06/05 02:50 12.7 94 10.46 11.8 15 17 1016.7 0.6 23.6 29.5 48.4 127.3 126.0 434.7
06/05 02:40 12.5 94 10.34 11.6 13 13 1016.9 0.6 23.4 29.4 48.0 126.2 124.6 429.8

Last Refresh: 06-May-2026 20:25:05

Bureau of Meteorology